createdAt,value
2023-03-03T00:01:53.282Z,12.20
2023-03-03T00:04:20.706Z,11.87
2023-03-03T00:06:48.103Z,11.67
2023-03-03T00:09:15.661Z,11.97
2023-03-03T00:11:43.051Z,12.33
2023-03-03T00:14:32.717Z,13.30
2023-03-03T00:17:36.904Z,15.27
2023-03-03T00:20:26.583Z,12.17
2023-03-03T00:22:53.836Z,13.40
2023-03-03T00:25:31.066Z,13.50
2023-03-03T00:28:29.888Z,14.20
2023-03-03T00:31:01.093Z,13.17
2023-03-03T00:33:50.716Z,16.77
2023-03-03T00:36:31.927Z,14.60
2023-03-03T00:39:24.948Z,14.17
2023-03-03T00:41:52.384Z,15.97
2023-03-03T00:44:48.054Z,14.17
2023-03-03T00:47:26.967Z,13.67
2023-03-03T00:50:29.241Z,14.53
2023-03-03T00:53:03.968Z,14.87
2023-03-03T00:55:32.250Z,13.90
2023-03-03T00:58:00.019Z,17.37
2023-03-03T01:00:34.396Z,15.23
2023-03-03T01:03:09.874Z,15.47
2023-03-03T01:05:37.659Z,16.07
2023-03-03T01:08:05.703Z,17.87
2023-03-03T01:10:38.127Z,16.37
2023-03-03T01:13:07.276Z,16.07
2023-03-03T01:15:34.652Z,17.37
2023-03-03T01:18:02.007Z,17.37
2023-03-03T01:20:29.270Z,16.70
2023-03-03T01:22:56.438Z,15.23
2023-03-03T01:25:23.769Z,15.07
2023-03-03T01:27:51.108Z,17.43
2023-03-03T01:30:18.616Z,19.60
2023-03-03T01:32:45.944Z,17.20
2023-03-03T01:35:13.779Z,15.90
2023-03-03T01:37:41.079Z,15.13
2023-03-03T01:40:25.020Z,15.33
2023-03-03T01:42:52.779Z,19.77
2023-03-03T01:45:42.454Z,17.00
2023-03-03T01:48:41.011Z,17.20
2023-03-03T01:51:39.086Z,18.43
2023-03-03T01:54:16.424Z,19.63
2023-03-03T01:56:44.624Z,20.63
2023-03-03T01:59:21.710Z,18.53
2023-03-03T02:01:49.954Z,18.87
2023-03-03T02:04:18.199Z,19.27
2023-03-03T02:06:55.001Z,16.47
2023-03-03T02:09:34.351Z,18.33
2023-03-03T02:12:08.151Z,17.50
2023-03-03T02:14:35.608Z,16.73
2023-03-03T02:17:03.258Z,18.80
2023-03-03T02:20:03.341Z,18.63
2023-03-03T02:22:44.274Z,16.70
2023-03-03T02:25:21.643Z,15.90
2023-03-03T02:27:51.027Z,15.27
2023-03-03T02:30:23.999Z,14.73
2023-03-03T02:32:51.239Z,14.53
2023-03-03T02:35:38.373Z,14.60
2023-03-03T02:38:25.210Z,14.13
2023-03-03T02:41:18.919Z,14.73
2023-03-03T02:44:06.213Z,15.27
2023-03-03T02:46:39.148Z,13.13
2023-03-03T02:49:08.761Z,14.30
2023-03-03T02:51:36.981Z,13.50
2023-03-03T02:54:07.082Z,14.67
2023-03-03T02:56:35.871Z,14.67
2023-03-03T02:59:05.894Z,14.33
2023-03-03T03:01:38.534Z,14.93
2023-03-03T03:04:14.464Z,15.40
2023-03-03T03:06:45.196Z,14.57
2023-03-03T03:09:15.826Z,13.83
2023-03-03T03:11:44.868Z,13.90
2023-03-03T03:14:15.020Z,15.37
2023-03-03T03:16:44.143Z,14.13
2023-03-03T03:19:11.941Z,13.27
2023-03-03T03:21:40.466Z,13.70
2023-03-03T03:24:08.714Z,14.70
2023-03-03T03:26:38.290Z,15.50
2023-03-03T03:29:06.241Z,14.27
2023-03-03T03:31:33.769Z,15.10
2023-03-03T03:34:02.920Z,14.07
2023-03-03T03:36:30.846Z,14.67
2023-03-03T03:38:58.254Z,16.80
2023-03-03T03:41:25.988Z,14.37
2023-03-03T03:43:53.261Z,15.30
2023-03-03T03:46:20.721Z,15.03
2023-03-03T03:48:47.870Z,15.63
2023-03-03T03:51:17.866Z,14.13
2023-03-03T03:53:45.690Z,16.20
2023-03-03T03:56:12.905Z,14.97
2023-03-03T03:58:42.095Z,14.73
2023-03-03T04:01:11.693Z,15.77
2023-03-03T04:03:44.294Z,16.07
2023-03-03T04:06:15.469Z,16.10
2023-03-03T04:08:43.139Z,15.90
2023-03-03T04:11:11.154Z,15.70
2023-03-03T04:13:38.625Z,17.77
2023-03-03T04:16:08.220Z,16.77
2023-03-03T04:18:36.273Z,18.17
2023-03-03T04:21:04.755Z,17.60
2023-03-03T04:23:32.832Z,16.03
2023-03-03T04:26:01.691Z,16.03
2023-03-03T04:28:28.999Z,18.30
2023-03-03T04:30:56.279Z,18.00
2023-03-03T04:33:24.814Z,17.50
2023-03-03T04:35:52.116Z,18.73
2023-03-03T04:38:19.847Z,18.20
2023-03-03T04:40:48.170Z,17.50
2023-03-03T04:43:16.968Z,19.43
2023-03-03T04:45:44.688Z,17.37
2023-03-03T04:48:12.318Z,17.20
2023-03-03T04:50:39.518Z,18.90
2023-03-03T04:53:06.742Z,18.93
2023-03-03T04:55:38.690Z,17.63
2023-03-03T04:58:07.081Z,17.47
2023-03-03T05:00:34.253Z,18.10
2023-03-03T05:03:02.552Z,17.27
2023-03-03T05:05:29.798Z,17.83
2023-03-03T05:07:56.947Z,18.43
2023-03-03T05:10:24.010Z,17.53
2023-03-03T05:12:51.211Z,20.00
2023-03-03T05:15:18.437Z,17.53
2023-03-03T05:17:45.609Z,19.37
2023-03-03T05:20:14.062Z,19.63
2023-03-03T05:22:41.474Z,20.47
2023-03-03T05:25:10.696Z,19.17
2023-03-03T05:27:37.850Z,20.17
2023-03-03T05:30:06.248Z,20.87
2023-03-03T05:32:33.577Z,20.47
2023-03-03T05:35:00.866Z,19.37
2023-03-03T05:37:28.086Z,20.83
2023-03-03T05:39:55.221Z,18.37
2023-03-03T05:42:22.519Z,19.43
2023-03-03T05:44:49.846Z,19.37
2023-03-03T05:47:17.051Z,19.37
2023-03-03T05:49:44.130Z,18.63
2023-03-03T05:52:12.242Z,20.23
2023-03-03T05:54:39.457Z,19.77
2023-03-03T05:57:06.736Z,21.07
2023-03-03T05:59:33.867Z,20.73
2023-03-03T06:02:01.068Z,21.27
2023-03-03T06:04:28.366Z,21.10
2023-03-03T06:06:55.529Z,21.63
2023-03-03T06:09:22.702Z,21.17
2023-03-03T06:11:49.961Z,20.20
2023-03-03T06:14:17.366Z,20.00
2023-03-03T06:16:44.732Z,21.20
2023-03-03T06:19:12.179Z,20.63
2023-03-03T06:21:39.823Z,21.43
2023-03-03T06:24:07.630Z,19.67
2023-03-03T06:26:34.873Z,19.67
2023-03-03T06:29:02.170Z,19.63
2023-03-03T06:31:29.336Z,19.63
2023-03-03T06:33:56.510Z,20.10
2023-03-03T06:36:23.707Z,20.03
2023-03-03T06:38:51.391Z,18.10
2023-03-03T06:41:18.551Z,18.87
2023-03-03T06:43:46.344Z,20.20
2023-03-03T06:46:13.659Z,19.13
2023-03-03T06:48:41.961Z,17.77
2023-03-03T06:51:26.788Z,18.70
2023-03-03T06:53:57.475Z,19.60
2023-03-03T06:56:25.868Z,19.47
2023-03-03T06:58:58.930Z,19.87
2023-03-03T07:01:28.371Z,21.47
2023-03-03T07:03:55.962Z,19.50
2023-03-03T07:06:26.662Z,19.43
2023-03-03T07:08:56.960Z,19.60
2023-03-03T07:11:24.718Z,20.33
2023-03-03T07:13:55.953Z,19.07
2023-03-03T07:16:28.644Z,19.33
2023-03-03T07:19:02.820Z,19.77
2023-03-03T07:21:38.121Z,18.63
2023-03-03T07:24:30.761Z,17.60
2023-03-03T07:27:13.687Z,16.83
2023-03-03T07:29:53.050Z,16.87
2023-03-03T07:32:43.548Z,16.27
2023-03-03T07:35:39.056Z,17.27
2023-03-03T07:38:24.636Z,15.57
2023-03-03T07:40:55.043Z,16.53
2023-03-03T07:43:37.118Z,15.30
2023-03-03T07:46:10.954Z,16.27
2023-03-03T07:48:41.916Z,16.17
2023-03-03T07:51:29.063Z,17.63
2023-03-03T07:54:29.349Z,16.53
2023-03-03T07:57:14.297Z,18.00
2023-03-03T07:59:51.391Z,16.47
2023-03-03T08:02:47.513Z,16.77
2023-03-03T08:05:28.232Z,19.53
2023-03-03T08:08:24.846Z,18.80
2023-03-03T08:11:00.247Z,17.87
2023-03-03T08:13:38.477Z,18.47
2023-03-03T08:16:11.699Z,20.10
2023-03-03T08:18:42.335Z,18.87
2023-03-03T08:21:16.210Z,19.93
2023-03-03T08:23:43.362Z,18.70
2023-03-03T08:26:12.705Z,20.00
2023-03-03T08:28:40.159Z,19.33
2023-03-03T08:31:18.527Z,19.63
2023-03-03T08:33:49.627Z,33.30
2023-03-03T08:36:16.758Z,21.83
2023-03-03T08:38:44.085Z,22.33
2023-03-03T08:41:11.525Z,19.77
2023-03-03T08:43:38.697Z,20.37
2023-03-03T08:46:10.305Z,19.43
2023-03-03T08:48:38.450Z,18.70
2023-03-03T08:51:05.953Z,17.70
2023-03-03T08:53:36.523Z,19.00
2023-03-03T08:56:05.696Z,15.57
2023-03-03T08:58:35.549Z,14.07
2023-03-03T09:01:04.431Z,15.30
2023-03-03T09:03:31.564Z,14.00
2023-03-03T09:05:58.871Z,13.10
2023-03-03T09:08:26.101Z,13.57
2023-03-03T09:10:53.471Z,12.83
2023-03-03T09:13:21.280Z,11.40
2023-03-03T09:15:50.439Z,11.83
2023-03-03T09:18:32.540Z,10.17
2023-03-03T09:20:59.717Z,10.97
2023-03-03T09:23:38.037Z,12.87
2023-03-03T09:26:28.390Z,12.13
2023-03-03T09:29:13.743Z,10.33
2023-03-03T09:31:46.306Z,10.63
2023-03-03T09:34:35.909Z,9.50
2023-03-03T09:37:21.936Z,8.10
2023-03-03T09:39:55.590Z,8.60
2023-03-03T09:42:44.204Z,8.90
2023-03-03T09:45:46.780Z,7.00
2023-03-03T09:48:30.540Z,7.90
2023-03-03T09:51:33.631Z,8.13
2023-03-03T09:54:34.307Z,7.23
2023-03-03T09:57:15.193Z,6.77
2023-03-03T10:00:20.298Z,7.07
2023-03-03T10:02:57.913Z,6.70
2023-03-03T10:05:39.123Z,6.80
2023-03-03T10:08:36.187Z,6.50
2023-03-03T10:11:14.046Z,6.67
2023-03-03T10:14:11.846Z,7.17
2023-03-03T10:16:59.441Z,6.93
2023-03-03T10:20:06.564Z,6.90
2023-03-03T10:23:18.097Z,45.87
2023-03-03T10:26:20.017Z,6.70
2023-03-03T10:28:59.696Z,6.90
2023-03-03T10:31:56.274Z,7.83
2023-03-03T10:35:09.309Z,6.97
2023-03-03T10:37:55.017Z,8.03
2023-03-03T10:40:42.348Z,7.77
2023-03-03T10:43:49.606Z,8.67
2023-03-03T10:46:24.262Z,8.10
2023-03-03T10:49:41.222Z,8.30
2023-03-03T10:52:47.606Z,7.37
2023-03-03T10:55:39.565Z,6.47
2023-03-03T10:58:22.068Z,6.33
2023-03-03T11:01:25.258Z,6.20
2023-03-03T11:04:23.118Z,5.40
2023-03-03T11:07:26.752Z,5.93
2023-03-03T11:10:05.917Z,5.40
2023-03-03T11:12:47.981Z,5.77
2023-03-03T11:15:33.322Z,6.30
2023-03-03T11:18:26.136Z,5.70
2023-03-03T11:21:20.054Z,6.37
2023-03-03T11:24:32.696Z,7.10
2023-03-03T11:27:51.318Z,8.40
2023-03-03T11:31:04.988Z,7.87
2023-03-03T11:34:01.886Z,8.07
2023-03-03T11:36:38.834Z,7.47
2023-03-03T11:39:11.977Z,6.80
2023-03-03T11:42:30.413Z,6.57
2023-03-03T11:45:15.176Z,6.53
2023-03-03T11:48:16.730Z,8.73
2023-03-03T11:51:03.338Z,9.43
2023-03-03T11:53:48.503Z,10.07
2023-03-03T11:56:25.171Z,10.53
2023-03-03T11:59:30.261Z,9.83
2023-03-03T12:02:23.721Z,8.00
2023-03-03T12:05:00.034Z,7.90
2023-03-03T12:07:47.220Z,8.53
2023-03-03T12:10:50.657Z,8.10
2023-03-03T12:13:32.432Z,9.10
2023-03-03T12:16:35.107Z,8.60
2023-03-03T12:19:17.118Z,8.13
2023-03-03T12:21:56.170Z,9.17
2023-03-03T12:25:09.838Z,9.60
2023-03-03T12:28:01.186Z,9.47
2023-03-03T12:30:37.244Z,9.20
2023-03-03T12:33:35.232Z,10.03
2023-03-03T12:36:30.378Z,8.37
2023-03-03T12:39:06.507Z,7.30
2023-03-03T12:42:36.820Z,7.50
2023-03-03T12:45:39.701Z,7.17
2023-03-03T12:48:17.773Z,7.00
2023-03-03T12:51:06.865Z,8.27
2023-03-03T12:54:09.147Z,7.20
2023-03-03T12:57:32.439Z,7.57
2023-03-03T13:00:11.599Z,7.13
2023-03-03T13:03:17.791Z,6.53
2023-03-03T13:06:36.019Z,6.60
2023-03-03T13:09:30.978Z,5.80
2023-03-03T13:12:38.221Z,5.87
2023-03-03T13:15:24.841Z,5.47
2023-03-03T13:18:11.335Z,5.47
2023-03-03T13:21:24.553Z,5.40
2023-03-03T13:24:20.400Z,5.13
2023-03-03T13:27:08.769Z,5.60
2023-03-03T13:30:04.098Z,4.40
2023-03-03T13:33:04.359Z,4.37
2023-03-03T13:35:55.091Z,4.60
2023-03-03T13:38:47.244Z,4.73
2023-03-03T13:41:32.358Z,3.60
2023-03-03T13:44:12.238Z,5.43
2023-03-03T13:47:04.235Z,3.67
2023-03-03T13:50:03.034Z,3.87
2023-03-03T13:52:39.050Z,3.83
2023-03-03T13:55:33.224Z,3.50
2023-03-03T13:58:15.929Z,3.50
2023-03-03T14:01:02.189Z,3.37
2023-03-03T14:04:34.624Z,3.20
2023-03-03T14:07:17.370Z,3.33
2023-03-03T14:10:02.937Z,2.80
2023-03-03T14:13:04.786Z,2.90
2023-03-03T14:15:50.566Z,3.70
2023-03-03T14:18:32.228Z,3.10
2023-03-03T14:21:26.887Z,3.10
2023-03-03T14:24:15.657Z,3.00
2023-03-03T14:26:50.994Z,4.00
2023-03-03T14:29:29.875Z,3.30
2023-03-03T14:32:02.868Z,4.00
2023-03-03T14:34:41.291Z,3.20
2023-03-03T14:37:25.637Z,3.60
2023-03-03T14:40:17.320Z,3.50
2023-03-03T14:42:56.601Z,4.27
2023-03-03T14:45:39.526Z,4.10
2023-03-03T14:48:27.780Z,4.10
2023-03-03T14:51:16.441Z,3.70
2023-03-03T14:53:48.159Z,4.27
2023-03-03T14:56:30.864Z,4.00
2023-03-03T14:59:20.965Z,3.90
2023-03-03T15:01:58.043Z,3.93
2023-03-03T15:04:28.604Z,4.80
2023-03-03T15:06:56.587Z,5.10
2023-03-03T15:09:40.349Z,4.93
2023-03-03T15:12:27.354Z,5.17
2023-03-03T15:15:07.206Z,5.67
2023-03-03T15:18:04.264Z,6.17
2023-03-03T15:21:05.185Z,6.50
2023-03-03T15:24:01.855Z,6.87
2023-03-03T15:26:47.541Z,6.97
2023-03-03T15:29:25.482Z,7.83
2023-03-03T15:32:31.056Z,7.50
2023-03-03T15:35:19.284Z,7.93
2023-03-03T15:37:54.302Z,8.33
2023-03-03T15:40:40.187Z,8.55
2023-03-03T15:43:22.209Z,7.87
2023-03-03T15:46:06.835Z,7.27
2023-03-03T15:49:34.061Z,7.23
2023-03-03T15:52:17.086Z,6.97
2023-03-03T15:55:09.269Z,5.93
2023-03-03T15:58:15.341Z,5.73
2023-03-03T16:01:12.551Z,6.10
2023-03-03T16:03:47.098Z,6.27
2023-03-03T16:06:58.961Z,5.40
2023-03-03T16:09:47.382Z,5.10
2023-03-03T16:12:43.895Z,5.70
2023-03-03T16:16:11.148Z,6.10
2023-03-03T16:18:58.659Z,5.73
2023-03-03T16:22:20.419Z,5.90
2023-03-03T16:25:19.005Z,5.50
2023-03-03T16:28:18.122Z,4.73
2023-03-03T16:31:11.525Z,4.37
2023-03-03T16:33:46.691Z,4.00
2023-03-03T16:36:57.511Z,4.30
2023-03-03T16:39:51.933Z,4.33
2023-03-03T16:42:33.591Z,5.13
2023-03-03T16:45:21.981Z,3.97
2023-03-03T16:47:58.179Z,4.63
2023-03-03T16:50:49.634Z,3.53
2023-03-03T16:53:30.757Z,4.00
2023-03-03T16:56:22.342Z,3.90
2023-03-03T16:59:12.214Z,4.27
2023-03-03T17:02:22.923Z,3.87
2023-03-03T17:05:51.445Z,3.33
2023-03-03T17:08:44.266Z,3.47
2023-03-03T17:11:42.694Z,3.63
2023-03-03T17:15:03.559Z,3.30
2023-03-03T17:18:19.538Z,3.60
2023-03-03T17:20:50.570Z,3.13
2023-03-03T17:23:43.432Z,3.33
2023-03-03T17:26:47.186Z,2.73
2023-03-03T17:29:39.861Z,2.97
2023-03-03T17:32:42.312Z,2.73
2023-03-03T17:35:32.656Z,2.80
2023-03-03T17:38:13.805Z,2.80
2023-03-03T17:41:30.505Z,3.07
2023-03-03T17:44:08.908Z,3.17
2023-03-03T17:46:55.003Z,2.70
2023-03-03T17:49:55.236Z,2.33
2023-03-03T17:53:01.181Z,2.73
2023-03-03T17:55:58.028Z,2.37
2023-03-03T17:58:56.497Z,2.70
2023-03-03T18:01:48.124Z,3.37
2023-03-03T18:04:50.186Z,3.07
2023-03-03T18:07:46.354Z,4.27
2023-03-03T18:10:42.953Z,2.83
2023-03-03T18:13:40.858Z,2.73
2023-03-03T18:16:42.618Z,3.13
2023-03-03T18:19:31.843Z,2.90
2023-03-03T18:22:11.616Z,3.23
2023-03-03T18:24:49.443Z,3.17
2023-03-03T18:27:25.668Z,3.20
2023-03-03T18:30:17.561Z,3.30
2023-03-03T18:33:07.217Z,3.77
2023-03-03T18:35:38.560Z,3.30
2023-03-03T18:38:17.923Z,3.80
2023-03-03T18:41:04.125Z,3.57
2023-03-03T18:43:44.660Z,3.50
2023-03-03T18:46:22.628Z,3.10
2023-03-03T18:49:07.923Z,3.23
2023-03-03T18:51:35.163Z,3.37
2023-03-03T18:54:12.415Z,2.83
2023-03-03T18:56:50.427Z,4.30
2023-03-03T18:59:36.531Z,4.20
2023-03-03T19:02:13.002Z,4.03
2023-03-03T19:04:55.654Z,4.00
2023-03-03T19:07:48.553Z,4.30
2023-03-03T19:10:21.808Z,3.93
2023-03-03T19:12:53.179Z,4.20
2023-03-03T19:15:29.776Z,3.67
2023-03-03T19:18:41.942Z,3.27
2023-03-03T19:21:12.222Z,3.50
2023-03-03T19:24:06.657Z,3.90
2023-03-03T19:27:13.060Z,3.73
2023-03-03T19:30:10.647Z,4.30
2023-03-03T19:33:00.200Z,5.20
2023-03-03T19:36:02.239Z,4.50
2023-03-03T19:38:55.467Z,4.33
2023-03-03T19:41:51.421Z,4.83
2023-03-03T19:45:15.669Z,5.03
2023-03-03T19:47:53.376Z,4.77
2023-03-03T19:50:24.512Z,3.83
2023-03-03T19:53:34.265Z,3.97
2023-03-03T19:56:24.125Z,4.03
2023-03-03T19:59:19.100Z,4.20
2023-03-03T20:02:17.212Z,4.40
2023-03-03T20:05:15.733Z,4.40
2023-03-03T20:08:09.676Z,5.00
2023-03-03T20:11:10.270Z,4.67
2023-03-03T20:13:57.898Z,3.50
2023-03-03T20:16:42.940Z,4.63
2023-03-03T20:19:36.287Z,4.40
2023-03-03T20:22:34.405Z,4.30
2023-03-03T20:25:20.566Z,5.47
2023-03-03T20:27:59.434Z,4.40
2023-03-03T20:30:50.510Z,4.30
2023-03-03T20:33:38.445Z,4.73
2023-03-03T20:36:16.057Z,3.87
2023-03-03T20:39:08.955Z,4.33
2023-03-03T20:42:24.768Z,4.80
2023-03-03T20:45:14.756Z,4.60
2023-03-03T20:48:13.647Z,4.17
2023-03-03T20:51:38.285Z,4.60
2023-03-03T20:54:42.422Z,3.77
2023-03-03T20:57:36.319Z,5.67
2023-03-03T21:00:13.953Z,5.33
2023-03-03T21:03:09.494Z,4.63
2023-03-03T21:05:59.766Z,5.23
2023-03-03T21:08:55.421Z,4.20
2023-03-03T21:11:46.112Z,4.83
2023-03-03T21:14:33.829Z,4.57
2023-03-03T21:17:23.324Z,4.70
2023-03-03T21:19:50.422Z,5.07
2023-03-03T21:22:17.556Z,6.07
2023-03-03T21:24:57.640Z,5.00
2023-03-03T21:27:31.566Z,4.93
2023-03-03T21:30:09.514Z,5.10
2023-03-03T21:32:46.220Z,5.30
2023-03-03T21:35:21.651Z,5.50
2023-03-03T21:37:57.230Z,4.63
2023-03-03T21:40:30.043Z,5.87
2023-03-03T21:42:59.765Z,4.57
2023-03-03T21:45:27.365Z,5.43
2023-03-03T21:48:02.587Z,20.00
2023-03-03T21:50:32.686Z,5.43
2023-03-03T21:52:59.907Z,4.57
2023-03-03T21:55:27.043Z,5.03
2023-03-03T21:57:54.168Z,4.87
2023-03-03T22:00:21.871Z,5.10
2023-03-03T22:02:49.232Z,5.57
2023-03-03T22:05:16.481Z,4.77
2023-03-03T22:07:43.555Z,5.73
2023-03-03T22:10:11.350Z,5.30
2023-03-03T22:12:38.587Z,4.07
2023-03-03T22:15:06.538Z,3.33
2023-03-03T22:17:34.021Z,3.83
2023-03-03T22:20:01.227Z,4.67
2023-03-03T22:22:28.463Z,4.07
2023-03-03T22:24:55.656Z,3.90
2023-03-03T22:27:23.588Z,4.50
2023-03-03T22:29:50.824Z,3.77
2023-03-03T22:32:17.941Z,3.70
2023-03-03T22:34:45.449Z,4.03
2023-03-03T22:37:12.595Z,4.40
2023-03-03T22:39:39.735Z,3.90
2023-03-03T22:42:06.939Z,5.20
2023-03-03T22:44:34.347Z,4.20
2023-03-03T22:47:01.474Z,3.60
2023-03-03T22:49:33.478Z,3.53
2023-03-03T22:52:02.551Z,4.10
2023-03-03T22:54:29.818Z,3.70
2023-03-03T22:56:56.907Z,3.33
2023-03-03T22:59:24.028Z,3.30
2023-03-03T23:01:51.245Z,3.53
2023-03-03T23:04:18.379Z,3.00
2023-03-03T23:06:46.038Z,3.97
2023-03-03T23:09:14.138Z,3.30
2023-03-03T23:11:41.383Z,3.07
2023-03-03T23:14:08.501Z,3.53
2023-03-03T23:16:35.574Z,4.63
2023-03-03T23:19:02.705Z,3.13
2023-03-03T23:21:29.895Z,3.30
2023-03-03T23:23:57.212Z,2.97
2023-03-03T23:26:24.378Z,2.60
2023-03-03T23:28:51.574Z,4.07
2023-03-03T23:31:18.813Z,3.37
2023-03-03T23:33:45.988Z,3.50
2023-03-03T23:36:13.178Z,2.73
2023-03-03T23:38:42.694Z,11.77
2023-03-03T23:41:10.248Z,2.87
2023-03-03T23:43:37.569Z,3.30
2023-03-03T23:46:04.952Z,3.77
2023-03-03T23:48:32.135Z,2.80
2023-03-03T23:51:11.397Z,3.20
2023-03-03T23:53:49.020Z,3.30
2023-03-03T23:56:32.034Z,3.20
2023-03-03T23:59:09.372Z,3.00
